Time;durP1;ratioP1;P1;durP2;ratioP2;P2;SDS_P1;SDS_P2;PMS_P1;PMS_P2;Temp;Humidity;BMP_temperature;BMP_pressure;BME280_temperature;BME280_humidity;BME280_pressure;Samples;Min_cycle;Max_cycle;Signal;HPM_P1;HPM_P2
2022/06/13 00:01:40;;;;;;;8.35;4.20;;;;;;;17.59;42.53;99546.00;5014907;28;20184;-81
2022/06/13 00:04:07;;;;;;;10.00;4.00;;;;;;;17.52;42.87;99527.75;5014648;28;20233;-80
2022/06/13 00:06:35;;;;;;;8.00;3.88;;;;;;;17.52;42.82;99527.75;5014867;28;20129;-80
2022/06/13 00:09:05;;;;;;;6.85;3.78;;;;;;;17.69;42.78;99548.34;5014694;28;20523;-80
2022/06/13 00:11:33;;;;;;;8.63;4.07;;;;;;;17.67;42.90;99539.63;5014298;28;20058;-81
2022/06/13 00:14:00;;;;;;;5.65;3.55;;;;;;;17.68;43.02;99543.97;5019793;28;20073;-81
2022/06/13 00:16:28;;;;;;;6.82;3.85;;;;;;;17.45;42.87;99503.31;5034343;28;20100;-81
2022/06/13 00:18:56;;;;;;;5.60;3.70;;;;;;;17.76;42.83;99549.88;5036022;28;20145;-82
2022/06/13 00:21:30;;;;;;;9.00;4.25;;;;;;;17.65;43.11;99544.06;5033912;28;20140;-82
2022/06/13 00:24:00;;;;;;;5.10;3.65;;;;;;;17.56;43.27;99532.03;5033885;28;20521;-82
2022/06/13 00:26:29;;;;;;;7.65;4.10;;;;;;;17.57;43.68;99539.91;5033964;28;20053;-80
2022/06/13 00:28:58;;;;;;;6.50;4.20;;;;;;;17.57;43.62;99541.66;5034009;28;20085;-80
2022/06/13 00:31:26;;;;;;;7.68;3.97;;;;;;;17.47;43.49;99524.38;5034098;28;20057;-80
2022/06/13 00:33:52;;;;;;;10.98;4.47;;;;;;;17.59;43.76;99545.13;5033556;28;20057;-79
2022/06/13 00:36:23;;;;;;;9.15;4.10;;;;;;;17.57;43.93;99550.47;5033640;28;20053;-80
2022/06/13 00:38:51;;;;;;;7.63;4.03;;;;;;;17.53;43.93;99540.00;5033846;28;20055;-80
2022/06/13 00:41:27;;;;;;;8.13;5.10;;;;;;;17.51;44.05;99531.28;5033043;28;20049;-81
2022/06/13 00:43:55;;;;;;;10.88;4.70;;;;;;;17.55;44.29;99536.44;5033781;28;20064;-80
2022/06/13 00:46:32;;;;;;;9.65;4.82;;;;;;;17.57;44.29;99533.72;5033592;28;20053;-81
2022/06/13 00:49:03;;;;;;;10.05;4.88;;;;;;;17.61;44.61;99544.16;5033831;28;20497;-80
2022/06/13 00:51:34;;;;;;;12.35;4.50;;;;;;;17.48;44.52;99516.41;5033922;28;20059;-81
2022/06/13 00:54:01;;;;;;;10.23;4.68;;;;;;;17.63;44.96;99540.63;5033532;28;20057;-79
2022/06/13 00:56:32;;;;;;;11.48;5.10;;;;;;;17.60;44.84;99536.31;5034120;28;20078;-79
2022/06/13 00:59:03;;;;;;;14.52;5.00;;;;;;;17.68;45.07;99543.97;5033801;28;20140;-80
2022/06/13 01:01:32;;;;;;;10.98;4.60;;;;;;;17.65;45.02;99541.44;5033804;28;20501;-80
2022/06/13 01:04:03;;;;;;;9.85;4.90;;;;;;;17.54;45.23;99541.75;5033612;28;20080;-80
2022/06/13 01:06:35;;;;;;;13.25;4.60;;;;;;;17.53;45.48;99540.91;5033535;28;20536;-80
2022/06/13 01:09:05;;;;;;;8.60;4.68;;;;;;;17.53;45.51;99545.28;5033271;28;20571;-80
2022/06/13 01:11:33;;;;;;;12.20;4.85;;;;;;;17.49;45.59;99544.53;5033308;28;20072;-78
2022/06/13 01:14:23;;;;;;;11.68;5.50;;;;;;;17.42;45.68;99540.34;5033046;28;20501;-79
2022/06/13 01:17:03;;;;;;;9.98;4.72;;;;;;;17.40;45.82;99531.59;5033159;28;20049;-80
2022/06/13 01:20:01;;;;;;;12.80;5.28;;;;;;;17.42;45.80;99542.13;5033368;28;20050;-80
2022/06/13 01:22:38;;;;;;;10.68;5.20;;;;;;;17.46;45.97;99538.47;5032687;28;20491;-79
2022/06/13 01:25:26;;;;;;;13.60;5.68;;;;;;;17.48;45.98;99545.44;5033295;28;20521;-79
2022/06/13 01:28:05;;;;;;;14.20;5.82;;;;;;;17.52;46.17;99540.94;5031619;28;20513;-79
2022/06/13 01:31:12;;;;;;;14.10;5.83;;;;;;;17.38;46.27;99528.16;5033281;28;20053;-80
2022/06/13 01:34:02;;;;;;;12.70;5.10;;;;;;;17.38;46.29;99526.38;5026783;28;20304;-79
2022/06/13 01:36:49;;;;;;;;;;;;;;;17.17;46.52;99533.16;5028511;28;20639;-80
2022/06/13 01:39:41;;;;;;;12.93;5.05;;;;;;;17.35;46.42;99536.16;5056950;28;19924;-78
2022/06/13 01:42:33;;;;;;;18.45;5.30;;;;;;;17.51;46.41;99533.91;5054976;28;20125;-80
2022/06/13 01:45:26;;;;;;;9.43;5.03;;;;;;;17.59;46.07;99530.16;5049929;28;20061;-80
2022/06/13 01:48:02;;;;;;;9.57;4.47;;;;;;;17.76;46.00;99537.53;5035186;28;20046;-80
2022/06/13 01:50:40;;;;;;;10.35;4.82;;;;;;;17.90;45.74;99537.16;5033595;28;20458;-80
2022/06/13 01:53:22;;;;;;;12.57;4.68;;;;;;;17.94;45.59;99532.63;5035130;28;20053;-81
2022/06/13 01:55:58;;;;;;;8.45;4.35;;;;;;;17.93;45.44;99529.13;5036992;28;20085;-80
2022/06/13 01:59:09;;;;;;;10.05;4.05;;;;;;;17.98;45.57;99534.25;5036646;28;20046;-80
2022/06/13 02:02:18;;;;;;;7.57;4.22;;;;;;;17.85;45.71;99530.28;5036686;28;20053;-80
2022/06/13 02:04:59;;;;;;;9.53;4.90;;;;;;;17.78;46.01;99527.78;5035863;28;20103;-81
2022/06/13 02:07:32;;;;;;;12.05;4.88;;;;;;;17.85;45.94;99525.84;5036438;28;20487;-80
2022/06/13 02:10:24;;;;;;;8.88;4.60;;;;;;;17.75;46.24;99529.69;5034882;28;20160;-79
2022/06/13 02:13:00;;;;;;;10.48;5.20;;;;;;;17.84;46.11;99531.19;5036899;28;20152;-80
2022/06/13 02:15:33;;;;;;;11.40;5.03;;;;;;;17.89;46.36;99539.84;5036114;28;20085;-80
2022/06/13 02:18:30;;;;;;;9.70;4.90;;;;;;;17.94;46.24;99535.25;5035533;28;20065;-80
2022/06/13 02:21:04;;;;;;;12.20;4.68;;;;;;;17.98;46.02;99540.41;5036523;28;20049;-80
2022/06/13 02:23:43;;;;;;;8.35;4.80;;;;;;;17.98;46.20;99524.56;5035967;28;20073;-80
2022/06/13 02:26:14;;;;;;;9.40;4.35;;;;;;;18.11;46.22;99535.59;5035401;28;20052;-80
2022/06/13 02:28:47;;;;;;;10.82;4.47;;;;;;;18.13;45.98;99533.78;5035150;28;20049;-81
2022/06/13 02:31:24;;;;;;;9.18;4.32;;;;;;;18.16;46.02;99530.16;5034821;28;20053;-80
2022/06/13 02:34:15;;;;;;;7.85;4.00;;;;;;;18.17;46.00;99519.50;5034974;28;20827;-81
2022/06/13 02:37:10;;;;;;;7.43;4.18;;;;;;;18.21;45.90;99522.94;5034881;28;20049;-80
2022/06/13 02:39:50;;;;;;;9.20;4.15;;;;;;;18.21;45.61;99507.94;5034666;28;20568;-81
2022/06/13 02:42:27;;;;;;;10.18;4.03;;;;;;;18.35;45.70;99530.41;5034766;28;20060;-82
2022/06/13 02:45:04;;;;;;;9.45;3.90;;;;;;;18.44;45.50;99518.66;5034396;28;20052;-81
2022/06/13 02:47:41;;;;;;;13.30;5.00;;;;;;;18.34;45.22;99491.66;5034286;28;20501;-81
2022/06/13 02:50:14;;;;;;;7.43;3.72;;;;;;;18.51;45.29;99526.31;5034480;28;20053;-80
2022/06/13 02:52:54;;;;;;;9.40;3.80;;;;;;;18.48;45.24;99513.22;5034737;28;20053;-80
2022/06/13 02:55:23;;;;;;;5.53;3.50;;;;;;;18.56;45.30;99510.28;5034591;28;20077;-80
2022/06/13 02:57:58;;;;;;;9.27;3.83;;;;;;;18.70;44.96;99520.41;5033265;28;20148;-80
2022/06/13 03:00:52;;;;;;;9.00;3.63;;;;;;;18.85;44.77;99508.44;5034664;28;20111;-80
2022/06/13 03:03:22;;;;;;;7.50;3.40;;;;;;;18.90;44.41;99511.75;5033620;28;20053;-80
2022/06/13 03:05:59;;;;;;;6.70;3.75;;;;;;;19.06;44.15;99522.63;5034412;28;20049;-80
2022/06/13 03:08:44;;;;;;;7.97;3.65;;;;;;;19.31;43.64;99506.72;5032422;28;20493;-79
2022/06/13 03:11:32;;;;;;;6.63;3.80;;;;;;;19.57;43.19;99503.06;5028212;28;20060;-80
2022/06/13 03:14:12;;;;;;;6.18;2.97;;;;;;;19.78;42.70;99504.03;5034361;28;20053;-81
2022/06/13 03:17:00;;;;;;;10.93;3.40;;;;;;;20.00;42.43;99502.25;5033171;28;20061;-81
2022/06/13 03:19:43;;;;;;;6.72;3.47;;;;;;;20.24;41.89;99500.34;5034179;28;20073;-81
2022/06/13 03:22:15;;;;;;;9.90;3.40;;;;;;;20.34;41.72;99498.16;5034032;28;20132;-81
2022/06/13 03:25:07;;;;;;;11.20;3.92;;;;;;;20.50;41.34;99494.84;5034072;28;20056;-80
2022/06/13 03:27:45;;;;;;;5.15;3.45;;;;;;;20.77;40.73;99491.03;5032939;28;20050;-81
2022/06/13 03:30:17;;;;;;;8.85;3.40;;;;;;;20.96;40.40;99501.69;5033763;28;20046;-81
2022/06/13 03:33:40;;;;;;;7.18;3.25;;;;;;;21.21;39.62;99492.63;5034163;28;20061;-80
2022/06/13 03:35:40;;;;;;;4.70;3.50;;;;;;;21.70;38.87;99492.97;5033914;28;20060;-80
2022/06/13 03:38:12;;;;;;;7.88;3.58;;;;;;;22.02;38.07;99478.09;5032733;28;20080;-80
2022/06/13 03:40:46;;;;;;;6.82;3.10;;;;;;;22.79;36.61;99481.31;5033933;28;20091;-81
2022/06/13 03:43:34;;;;;;;4.47;2.92;;;;;;;23.18;36.30;99483.66;5033739;28;20080;-80
2022/06/13 03:46:07;;;;;;;6.27;2.97;;;;;;;24.03;34.72;99487.81;5033983;28;20060;-80
2022/06/13 03:48:41;;;;;;;10.18;3.10;;;;;;;25.97;31.51;99488.38;5032597;28;20057;-80
2022/06/13 03:51:20;;;;;;;4.20;2.80;;;;;;;28.49;27.92;99478.50;5033735;28;20061;-82
2022/06/13 03:53:52;;;;;;;3.67;2.58;;;;;;;28.97;26.46;99484.56;5033859;28;20060;-83
2022/06/13 03:56:25;;;;;;;6.45;3.00;;;;;;;27.71;28.35;99482.53;5033757;28;20045;-83
2022/06/13 03:58:58;;;;;;;2.90;2.42;;;;;;;27.96;28.09;99474.38;5033697;28;20087;-82
2022/06/13 04:01:39;;;;;;;8.57;2.80;;;;;;;31.78;23.88;99481.50;5033420;28;20057;-82
2022/06/13 04:04:15;;;;;;;4.38;3.10;;;;;;;34.11;21.10;99472.81;5031455;28;20133;-81
2022/06/13 04:06:43;;;;;;;7.32;2.72;;;;;;;35.77;18.83;99475.38;5033518;28;20581;-81
2022/06/13 04:09:20;;;;;;;6.05;2.80;;;;;;;36.76;18.17;99470.84;5033211;28;20049;-81
2022/06/13 04:11:53;;;;;;;5.50;2.70;;;;;;;36.07;18.44;99476.63;5032412;28;20501;-82
2022/06/13 04:15:06;;;;;;;6.68;2.65;;;;;;;35.84;18.91;99471.00;5033126;28;20528;-81
2022/06/13 04:17:33;;;;;;;;;;;;;;;35.26;20.93;99461.81;5034687;28;20084;-82
2022/06/13 04:20:10;;;;;;;4.47;2.60;;;;;;;33.07;21.38;99459.66;5033222;28;20027;-80
2022/06/13 04:22:47;;;;;;;5.07;2.60;;;;;;;31.02;23.54;99462.22;5033138;28;20053;-81
2022/06/13 04:25:26;;;;;;;6.65;2.60;;;;;;;29.69;24.91;99464.50;5031778;28;20524;-82
2022/06/13 04:28:03;;;;;;;6.45;2.80;;;;;;;28.61;26.45;99458.75;5032876;28;20057;-80
2022/06/13 04:30:34;;;;;;;8.07;2.72;;;;;;;27.81;27.63;99461.22;5032504;28;20080;-80
2022/06/13 04:33:08;;;;;;;5.18;2.75;;;;;;;27.09;28.98;99468.16;5032894;28;20524;-81
2022/06/13 04:35:37;;;;;;;11.52;2.72;;;;;;;26.87;29.53;99443.88;5032732;28;20041;-81
2022/06/13 04:38:08;;;;;;;3.83;2.65;;;;;;;26.63;29.79;99452.66;5031403;28;20096;-81
2022/06/13 04:40:40;;;;;;;9.95;2.97;;;;;;;26.14;30.62;99456.00;5027629;28;20552;-81
2022/06/13 04:43:10;;;;;;;3.72;2.70;;;;;;;25.84;31.62;99473.09;5013414;28;20451;-83
2022/06/13 04:46:00;;;;;;;5.70;2.90;;;;;;;25.68;31.66;99459.00;5011841;28;20457;-82
2022/06/13 04:48:27;;;;;;;8.95;3.13;;;;;;;25.64;32.08;99465.50;5012855;28;20061;-81
2022/06/13 04:50:59;;;;;;;6.43;2.33;;;;;;;25.49;32.37;99454.88;5012814;28;20061;-81
2022/06/13 04:53:34;;;;;;;5.40;2.83;;;;;;;25.13;33.03;99458.91;5012828;28;20115;-81
2022/06/13 04:56:02;;;;;;;5.18;3.17;;;;;;;25.15;33.87;99461.50;5012580;28;20137;-81
2022/06/13 04:58:32;;;;;;;9.23;2.78;;;;;;;25.28;33.82;99459.78;5012540;28;20073;-81
2022/06/13 05:01:14;;;;;;;3.97;3.10;;;;;;;25.14;33.99;99454.41;5015774;28;20053;-82
2022/06/13 05:03:43;;;;;;;9.45;3.15;;;;;;;25.16;34.37;99457.84;5029328;28;20417;-81
2022/06/13 05:06:23;;;;;;;6.15;2.85;;;;;;;25.26;34.52;99453.66;5033321;28;20061;-81
2022/06/13 05:09:19;;;;;;;7.53;2.70;;;;;;;25.41;34.46;99453.66;5033561;28;20053;-82
2022/06/13 05:11:49;;;;;;;6.88;2.95;;;;;;;25.31;34.83;99453.38;5031759;28;20065;-82
2022/06/13 05:14:31;;;;;;;7.68;2.90;;;;;;;25.06;35.50;99449.56;5032176;28;20140;-82
2022/06/13 05:17:32;;;;;;;4.93;2.70;;;;;;;24.78;35.73;99452.22;5032458;28;20104;-82
2022/06/13 05:20:35;;;;;;;3.45;2.80;;;;;;;24.99;35.78;99431.34;5032188;28;20057;-82
2022/06/13 05:23:27;;;;;;;4.03;2.60;;;;;;;25.42;35.08;99445.50;5033913;28;20060;-83
2022/06/13 05:25:58;;;;;;;5.03;2.67;;;;;;;25.42;35.41;99450.00;5029651;28;20132;-82
2022/06/13 05:28:29;;;;;;;4.90;3.10;;;;;;;25.39;35.51;99444.88;5036297;28;20084;-82
2022/06/13 05:31:05;;;;;;;6.50;3.05;;;;;;;25.17;35.23;99423.97;5033854;28;20058;-82
2022/06/13 05:33:39;;;;;;;5.18;2.63;;;;;;;25.17;35.91;99456.03;5036291;28;20054;-81
2022/06/13 05:36:10;;;;;;;9.40;3.40;;;;;;;25.24;36.13;99446.72;5022426;28;20076;-82
2022/06/13 05:38:41;;;;;;;8.23;2.80;;;;;;;25.43;36.19;99449.91;5016422;28;20058;-82
2022/06/13 05:41:09;;;;;;;6.03;2.92;;;;;;;25.64;35.95;99453.03;5013587;28;20081;-82
2022/06/13 05:43:36;;;;;;;7.88;3.10;;;;;;;25.74;36.23;99448.75;5013530;28;20497;-81
2022/06/13 05:46:04;;;;;;;3.10;2.78;;;;;;;25.66;36.16;99439.53;5029984;28;20163;-80
2022/06/13 05:48:32;;;;;;;4.22;2.60;;;;;;;25.60;36.16;99445.28;5026613;28;20057;-82
2022/06/13 05:50:59;;;;;;;5.32;2.42;;;;;;;25.71;36.40;99440.09;5031073;28;20061;-81
2022/06/13 05:53:27;;;;;;;4.85;2.40;;;;;;;25.86;35.96;99425.69;5032602;28;20461;-81
2022/06/13 05:55:59;;;;;;;4.32;2.70;;;;;;;26.02;35.53;99424.69;5031830;28;20166;-83
2022/06/13 05:58:33;;;;;;;4.32;2.70;;;;;;;26.24;35.29;99433.00;5027629;28;20104;-82
2022/06/13 06:01:01;;;;;;;3.97;2.42;;;;;;;26.24;35.56;99427.66;5028544;28;20157;-81
2022/06/13 06:03:28;;;;;;;8.35;2.70;;;;;;;26.36;35.41;99424.09;5020651;28;21324;-80
2022/06/13 06:05:56;;;;;;;5.18;2.15;;;;;;;26.48;34.77;99443.84;5022845;28;20510;-81
2022/06/13 06:08:27;;;;;;;8.82;2.50;;;;;;;26.51;34.76;99440.06;5012706;28;20053;-80
2022/06/13 06:10:56;;;;;;;7.72;2.40;;;;;;;26.57;34.67;99431.66;5012714;28;20112;-85
2022/06/13 06:13:24;;;;;;;4.22;2.47;;;;;;;26.64;34.83;99432.09;5013237;28;20070;-83
2022/06/13 06:15:52;;;;;;;3.95;2.90;;;;;;;26.57;34.73;99437.00;5013197;28;20054;-84
2022/06/13 06:18:21;;;;;;;3.83;2.40;;;;;;;26.26;34.87;99423.00;5013529;28;20092;-86
2022/06/13 06:20:48;;;;;;;8.10;2.85;;;;;;;26.21;34.91;99408.25;5012644;28;20049;-84
2022/06/13 06:23:16;;;;;;;5.28;2.25;;;;;;;26.20;34.82;99419.91;5011797;28;20058;-84
2022/06/13 06:25:47;;;;;;;3.05;2.40;;;;;;;26.15;35.20;99436.28;5012775;28;20057;-84
2022/06/13 06:28:18;;;;;;;5.72;3.20;;;;;;;26.42;35.45;99422.84;5013187;28;20137;-84
2022/06/13 06:30:45;;;;;;;5.60;2.90;;;;;;;26.63;34.97;99428.56;5013243;28;20061;-85
2022/06/13 06:33:13;;;;;;;3.63;2.70;;;;;;;26.62;34.91;99434.00;5011886;28;20060;-83
2022/06/13 06:35:41;;;;;;;3.72;2.90;;;;;;;26.49;34.72;99393.81;5011621;28;20069;-84
2022/06/13 06:38:09;;;;;;;4.72;3.00;;;;;;;26.75;35.11;99426.81;5012423;28;20054;-83
2022/06/13 06:40:37;;;;;;;6.40;2.85;;;;;;;26.72;35.09;99421.69;5017206;28;20092;-85
2022/06/13 06:43:05;;;;;;;4.93;2.70;;;;;;;26.27;35.39;99397.13;5037559;28;20144;-85
2022/06/13 06:45:33;;;;;;;5.63;2.60;;;;;;;26.05;35.50;99417.31;5035196;28;20045;-82
2022/06/13 06:48:00;;;;;;;5.68;3.03;;;;;;;26.06;35.94;99423.53;5032260;28;20061;-82
2022/06/13 06:50:34;;;;;;;5.57;2.70;;;;;;;26.09;36.01;99432.22;5037359;28;20117;-83
2022/06/13 06:53:01;;;;;;;4.07;2.75;;;;;;;26.22;35.64;99417.97;5035727;28;20144;-82
2022/06/13 07:00:57;;;;;;;7.80;3.40;;;;;;;27.14;34.13;99423.09;5034430;28;20148;-82
2022/06/13 07:03:25;;;;;;;5.38;3.08;;;;;;;27.64;33.00;99425.78;5033834;28;20437;-85
2022/06/13 07:05:52;;;;;;;2.75;2.50;;;;;;;27.72;32.76;99426.03;5035503;28;20508;-81
2022/06/13 07:08:19;;;;;;;7.03;2.63;;;;;;;27.70;33.02;99416.41;5035246;28;20572;-83
2022/06/13 07:10:49;;;;;;;4.20;2.85;;;;;;;27.74;32.94;99415.19;5031307;28;20065;-84
2022/06/13 07:13:18;;;;;;;2.75;2.50;;;;;;;28.16;32.21;99407.59;5033545;28;20111;-84
2022/06/13 07:15:48;;;;;;;3.95;2.70;;;;;;;28.51;32.19;99423.69;5012741;28;20065;-86
2022/06/13 07:18:16;;;;;;;5.28;2.80;;;;;;;29.08;31.22;99423.69;5014483;28;20046;-86
2022/06/13 07:20:44;;;;;;;3.58;2.92;;;;;;;28.91;30.65;99411.59;5015253;28;20129;-85
2022/06/13 07:23:12;;;;;;;5.55;2.72;;;;;;;28.76;30.84;99422.59;5013942;28;20204;-83
2022/06/13 07:25:39;;;;;;;3.13;2.70;;;;;;;28.70;31.30;99415.03;5015220;28;20545;-82
2022/06/13 07:28:06;;;;;;;3.97;2.70;;;;;;;28.51;31.85;99402.19;5014535;28;20060;-84
2022/06/13 07:30:33;;;;;;;4.38;2.70;;;;;;;28.70;31.93;99404.28;5017678;28;20052;-82
2022/06/13 07:33:01;;;;;;;4.45;2.40;;;;;;;28.75;31.71;99415.50;5034293;28;20054;-82
2022/06/13 07:35:28;;;;;;;4.55;2.75;;;;;;;28.75;31.52;99428.94;5034263;28;20586;-83
2022/06/13 07:40:41;;;;;;;4.43;3.10;;;;;;;28.65;31.42;99397.53;5034447;28;20050;-82
2022/06/13 07:43:21;;;;;;;4.53;3.20;;;;;;;28.49;31.30;99406.81;5034569;28;20080;-84
2022/06/13 07:45:48;;;;;;;5.18;3.15;;;;;;;28.70;31.36;99415.03;5033508;28;20103;-82
2022/06/13 07:48:25;;;;;;;6.07;2.80;;;;;;;28.96;30.41;99412.94;5034590;28;20065;-81
2022/06/13 07:50:53;;;;;;;6.97;2.67;;;;;;;29.37;29.37;99421.38;5032995;28;20055;-83
2022/06/13 07:53:20;;;;;;;7.07;2.50;;;;;;;29.32;28.98;99410.97;5034404;28;20144;-82
2022/06/13 07:56:12;;;;;;;5.07;2.60;;;;;;;29.31;28.95;99416.47;5034501;28;20046;-82
2022/06/13 07:58:41;;;;;;;5.28;2.63;;;;;;;29.09;28.88;99403.91;5034370;28;20501;-82
2022/06/13 08:01:10;;;;;;;8.40;3.85;;;;;;;29.23;29.11;99413.56;5033484;28;20057;-83
2022/06/13 08:03:42;;;;;;;10.63;2.80;;;;;;;29.05;29.79;99414.03;5034078;28;20464;-82
2022/06/13 08:06:14;;;;;;;6.15;2.83;;;;;;;28.87;30.26;99402.94;5034430;28;20081;-82
2022/06/13 08:09:06;;;;;;;5.40;2.70;;;;;;;28.90;30.49;99408.06;5032917;28;20510;-83
2022/06/13 08:11:43;;;;;;;5.85;2.67;;;;;;;28.63;30.57;99362.75;5034210;28;20509;-82
2022/06/13 08:14:11;;;;;;;8.15;2.78;;;;;;;28.95;30.11;99411.25;5035175;28;20049;-82
2022/06/13 08:16:38;;;;;;;6.03;2.30;;;;;;;28.75;30.36;99409.28;5033883;28;20117;-82
2022/06/13 08:19:06;;;;;;;5.90;2.75;;;;;;;28.39;30.70;99412.03;5035373;28;20072;-82
2022/06/13 08:21:36;;;;;;;6.60;2.53;;;;;;;28.18;31.41;99408.34;5033383;28;20525;-83
2022/06/13 08:24:05;;;;;;;6.38;3.38;;;;;;;28.25;31.35;99398.81;5032980;28;20080;-82
2022/06/13 08:26:40;;;;;;;8.27;2.95;;;;;;;28.33;31.58;99412.50;5032915;28;20096;-83
2022/06/13 08:29:07;;;;;;;3.78;3.10;;;;;;;28.36;31.38;99388.09;5034004;28;20053;-83
2022/06/13 08:31:35;;;;;;;4.47;2.38;;;;;;;28.57;31.19;99395.50;5034157;28;20060;-83
2022/06/13 08:34:04;;;;;;;8.02;2.60;;;;;;;28.55;31.49;99402.81;5032887;28;20067;-83
2022/06/13 08:36:31;;;;;;;2.60;2.23;;;;;;;28.34;31.55;99378.44;5032615;28;20701;-83
2022/06/13 08:38:58;;;;;;;3.85;2.58;;;;;;;28.20;31.69;99382.22;5033376;28;20069;-83
2022/06/13 08:41:50;;;;;;;4.70;2.53;;;;;;;28.19;31.46;99399.28;5032588;28;20079;-82
2022/06/13 08:44:41;;;;;;;3.50;2.22;;;;;;;27.94;31.94;99395.81;5031942;28;20053;-84
2022/06/13 08:47:23;;;;;;;7.32;2.40;;;;;;;27.97;32.19;99392.88;5034104;28;20057;-83
2022/06/13 08:50:01;;;;;;;5.05;2.70;;;;;;;28.04;32.13;99387.91;5016139;28;20111;-81
2022/06/13 08:52:43;;;;;;;7.18;2.50;;;;;;;28.14;32.21;99390.75;5015961;28;20152;-80
2022/06/13 08:55:45;;;;;;;3.10;2.55;;;;;;;27.71;32.30;99359.94;5033618;28;20099;-83
2022/06/13 08:58:28;;;;;;;4.88;2.60;;;;;;;27.96;32.34;99393.88;5033064;28;20080;-83
2022/06/13 09:01:10;;;;;;;4.25;2.30;;;;;;;28.09;32.22;99392.91;5032364;28;20053;-82
2022/06/13 09:03:43;;;;;;;4.22;2.78;;;;;;;28.53;32.06;99384.13;5033782;28;20378;-82
2022/06/13 09:06:19;;;;;;;4.93;3.00;;;;;;;28.73;31.18;99376.31;5034020;28;20053;-82
2022/06/13 09:08:57;;;;;;;6.55;2.78;;;;;;;28.66;30.96;99381.31;5033548;28;20053;-82
2022/06/13 09:11:54;;;;;;;5.45;2.70;;;;;;;28.85;30.92;99382.53;5032934;28;20080;-81
2022/06/13 09:14:31;;;;;;;5.28;2.53;;;;;;;29.03;30.29;99372.13;5033023;28;20127;-83
2022/06/13 09:17:32;;;;;;;7.95;4.40;;;;;;;29.10;30.80;99374.22;5033082;28;20049;-84
2022/06/13 09:20:08;;;;;;;4.63;2.75;;;;;;;29.10;31.14;99376.91;5030675;28;20037;-81
2022/06/13 09:23:03;;;;;;;7.70;2.50;;;;;;;29.40;29.56;99372.69;5056857;28;20025;-80
2022/06/13 09:25:45;;;;;;;12.10;2.47;;;;;;;29.17;29.13;99350.41;5057095;28;20045;-83
2022/06/13 09:28:38;;;;;;;6.20;2.90;;;;;;;29.17;29.20;99372.75;5042757;28;20064;-82
2022/06/13 09:31:09;;;;;;;4.68;3.58;;;;;;;29.35;29.03;99381.13;5036775;28;20073;-83
2022/06/13 09:33:43;;;;;;;7.38;2.40;;;;;;;29.30;28.85;99377.13;5032002;28;20057;-83
2022/06/13 09:36:19;;;;;;;9.52;2.78;;;;;;;29.24;29.05;99356.97;5031210;28;20472;-84
2022/06/13 09:38:56;;;;;;;4.28;2.47;;;;;;;29.09;29.61;99380.59;5033525;28;20509;-83
2022/06/13 09:41:32;;;;;;;4.55;2.60;;;;;;;28.84;29.96;99380.81;5032853;28;20076;-83
2022/06/13 09:44:42;;;;;;;5.57;2.50;;;;;;;28.73;30.76;99376.31;5032764;28;20460;-83
2022/06/13 09:47:28;;;;;;;3.20;2.30;;;;;;;29.19;29.28;99367.25;5031622;28;20057;-84
2022/06/13 09:50:04;;;;;;;8.48;2.58;;;;;;;29.32;27.46;99380.53;5034085;28;20061;-84
2022/06/13 09:52:52;;;;;;;4.15;2.15;;;;;;;29.47;28.00;99368.53;5032699;28;20124;-83
2022/06/13 09:55:36;;;;;;;8.25;2.70;;;;;;;29.37;27.95;99371.09;5033931;28;20136;-82
2022/06/13 09:58:15;;;;;;;5.55;2.45;;;;;;;28.97;28.45;99377.03;5015790;28;20052;-81
2022/06/13 10:00:45;;;;;;;8.77;2.55;;;;;;;28.77;28.80;99370.56;5033342;28;20075;-82
2022/06/13 10:03:36;;;;;;;7.80;2.88;;;;;;;28.77;29.54;99375.94;5031846;28;20087;-84
2022/06/13 10:06:32;;;;;;;6.93;2.70;;;;;;;29.25;28.81;99384.72;5031830;28;20135;-83
2022/06/13 10:09:26;;;;;;;4.93;2.60;;;;;;;29.44;28.62;99352.63;5032261;28;20049;-83
2022/06/13 10:12:03;;;;;;;4.57;2.70;;;;;;;29.32;29.14;99359.00;5031482;28;20096;-83
2022/06/13 10:15:04;;;;;;;5.53;2.80;;;;;;;29.35;29.33;99348.84;5034256;28;20049;-83
2022/06/13 10:17:41;;;;;;;11.07;2.90;;;;;;;29.05;29.19;99365.66;5036209;28;20096;-82
2022/06/13 10:20:33;;;;;;;4.05;2.60;;;;;;;29.00;28.74;99362.50;5036620;28;20053;-83
2022/06/13 10:23:22;;;;;;;3.65;2.20;;;;;;;29.01;28.81;99358.81;5034795;28;20253;-82
2022/06/13 10:25:58;;;;;;;2.80;2.40;;;;;;;28.55;29.17;99351.78;5036068;28;20077;-83
2022/06/13 10:28:31;;;;;;;3.75;2.40;;;;;;;28.56;29.57;99350.78;5036035;28;20586;-83
2022/06/13 10:31:40;;;;;;;7.07;2.65;;;;;;;28.71;29.87;99354.91;5030802;28;21112;-84
2022/06/13 10:34:29;;;;;;;5.20;2.50;;;;;;;28.58;29.49;99344.28;5034885;28;20053;-81
2022/06/13 10:37:19;;;;;;;5.60;3.07;;;;;;;28.59;29.85;99343.34;5036567;28;20144;-82
2022/06/13 10:39:52;;;;;;;3.35;2.53;;;;;;;28.27;29.55;99323.53;5032295;28;20053;-82
2022/06/13 10:42:23;;;;;;;5.18;2.40;;;;;;;28.23;29.28;99328.28;5036063;28;20148;-82
2022/06/13 10:44:51;;;;;;;4.68;2.67;;;;;;;28.28;27.99;99344.00;5035570;28;20069;-83
2022/06/13 10:47:30;;;;;;;6.45;2.50;;;;;;;28.35;27.22;99339.84;5036425;28;20104;-80
2022/06/13 10:50:02;;;;;;;8.53;2.07;;;;;;;28.18;26.88;99341.22;5036161;28;20083;-83
2022/06/13 10:52:37;;;;;;;2.75;2.10;;;;;;;28.25;26.80;99334.38;5035803;28;20072;-81
2022/06/13 10:55:10;;;;;;;3.35;2.30;;;;;;;28.33;26.92;99314.97;5036088;28;20531;-82
2022/06/13 10:57:47;;;;;;;8.05;2.40;;;;;;;28.61;27.03;99319.03;5034315;28;20536;-82
2022/06/13 11:00:21;;;;;;;5.05;2.53;;;;;;;28.59;27.50;99332.59;5035538;28;20056;-82
2022/06/13 11:02:51;;;;;;;7.63;2.30;;;;;;;28.77;26.25;99321.34;5035326;28;20056;-82
2022/06/13 11:05:24;;;;;;;11.02;2.70;;;;;;;28.22;26.29;99272.84;5035385;28;20049;-79
2022/06/13 11:07:52;;;;;;;8.55;2.17;;;;;;;28.22;26.17;99318.50;5035109;28;20111;-82
2022/06/13 11:10:28;;;;;;;6.05;1.92;;;;;;;27.93;26.97;99323.47;5034152;28;20440;-81
2022/06/13 11:12:57;;;;;;;4.95;2.08;;;;;;;27.62;26.92;99314.19;5033580;28;20049;-82
2022/06/13 11:24:29;;;;;;;7.85;2.38;;;;;;;27.08;28.76;99319.03;5034724;28;20588;-83
2022/06/13 11:29:43;;;;;;;5.93;2.50;;;;;;;27.21;29.00;99328.84;5035052;28;20390;-81
2022/06/13 11:32:20;;;;;;;5.00;2.08;;;;;;;27.58;28.78;99314.41;5033680;28;20053;-83
2022/06/13 11:34:48;;;;;;;3.55;2.10;;;;;;;27.85;28.47;99328.53;5034807;28;20053;-81
2022/06/13 11:37:23;;;;;;;2.90;2.03;;;;;;;27.98;28.32;99323.94;5034579;28;20041;-82
2022/06/13 11:39:52;;;;;;;3.22;2.05;;;;;;;28.06;28.02;99326.91;5034420;28;20140;-82
2022/06/13 11:42:26;;;;;;;;;;;;;;;27.83;28.21;99317.06;5035177;28;20115;-81
2022/06/13 11:45:06;;;;;;;6.03;1.90;;;;;;;28.05;26.65;99298.34;5033398;28;20304;-82
2022/06/13 11:47:47;;;;;;;6.90;2.00;;;;;;;28.21;26.42;99310.56;5034312;28;20054;-81
2022/06/13 11:50:35;;;;;;;2.72;1.90;;;;;;;27.81;27.04;99293.00;5014699;28;20049;-83
2022/06/13 11:55:59;;;;;;;6.25;2.15;;;;;;;27.21;27.95;99302.91;5027854;28;20056;-82
2022/06/13 11:58:32;;;;;;;5.30;2.30;;;;;;;27.51;28.31;99310.50;5033764;28;20075;-81
2022/06/13 12:01:16;;;;;;;9.38;2.50;;;;;;;27.58;28.21;99305.53;5033625;28;20467;-82
2022/06/13 12:03:59;;;;;;;3.03;2.00;;;;;;;27.40;28.45;99314.94;5018500;28;20057;-83
2022/06/13 12:06:27;;;;;;;2.13;1.90;;;;;;;27.51;28.34;99312.31;5034041;28;20057;-83
2022/06/13 12:09:05;;;;;;;5.20;2.67;;;;;;;27.63;28.42;99305.16;5033793;28;20057;-82
2022/06/13 12:11:46;;;;;;;3.58;1.95;;;;;;;27.67;28.46;99309.34;5031389;28;20068;-84
2022/06/13 12:14:13;;;;;;;3.97;2.15;;;;;;;27.44;28.89;99325.31;5025013;28;20485;-81
2022/06/13 12:16:52;;;;;;;5.05;1.95;;;;;;;26.97;29.54;99302.88;5030865;28;20054;-81
2022/06/13 12:19:38;;;;;;;3.97;2.58;;;;;;;26.76;30.22;99316.88;5033752;28;20053;-80
2022/06/13 12:22:11;;;;;;;4.65;2.20;;;;;;;26.56;30.53;99296.03;5034186;28;20049;-81
2022/06/13 12:24:49;;;;;;;4.35;2.00;;;;;;;26.66;30.76;99314.97;5033421;28;20055;-81
2022/06/13 12:27:39;;;;;;;5.63;2.17;;;;;;;26.73;31.11;99321.59;5032179;28;20429;-81
2022/06/13 12:30:19;;;;;;;2.58;2.10;;;;;;;26.63;31.31;99313.38;5034166;28;20140;-81
2022/06/13 12:33:06;;;;;;;2.95;2.22;;;;;;;26.54;31.51;99316.66;5033361;28;20053;-80
2022/06/13 12:35:41;;;;;;;3.28;2.55;;;;;;;26.41;31.77;99307.81;5032468;28;20528;-79
2022/06/13 12:38:19;;;;;;;3.67;2.35;;;;;;;26.35;32.07;99306.44;5032429;28;20053;-81
2022/06/13 12:41:02;;;;;;;4.80;2.50;;;;;;;26.62;31.71;99310.81;5032326;28;20054;-81